Airport ID:KO69
Update Time (UTC):15/04/2021 05:52
Wind Speed (Knots):2
Wind Direction (Magnetic):300
Temperature (°C):7
Dew Point (°C):6
Humidity (%):94
Altimeter (inHg):30.02
Density Altitude (Feet):
Visibility (Miles):7
Clouds (Hundreds of feet):OVC010
Present Weather:
METAR:METAR KO69 150550Z AUTO 00000KT 7SM OVC010 07/06 A3002 RMK A01

The data displayed is for advisory purposes only and is not to be used for flight planning or operations.